Time,TemperatureF,DewpointF,PressureIn,WindDirection,WindDirectionDegrees,WindSpeedMPH,WindSpeedGustMPH,Humidity,HourlyPrecipIn,Conditions,Clouds,dailyrainin,SoftwareType,DateUTC
2013-06-28 00:10:00,72.3,71.0,29.52,SE,128,0.0,4.0,97,0.03,,,0.00,weatherlink.com 1.10,2013-06-28 04:10:00,
2013-06-28 00:25:00,71.9,71.0,29.52,South,173,0.0,8.0,96,0.04,,,0.01,weatherlink.com 1.10,2013-06-28 04:25:00,
2013-06-28 00:40:00,71.7,71.0,29.52,South,188,6.0,8.0,96,0.04,,,0.01,weatherlink.com 1.10,2013-06-28 04:40:00,
2013-06-28 00:55:00,71.3,70.0,29.52,SSE,150,0.0,5.0,96,0.01,,,0.01,weatherlink.com 1.10,2013-06-28 04:55:00,
2013-06-28 01:10:00,71.0,70.0,29.52,WNW,288,0.0,5.0,96,0.01,,,0.01,weatherlink.com 1.10,2013-06-28 05:10:00,
2013-06-28 01:25:00,70.9,70.0,29.51,WNW,294,0.0,4.0,96,0.00,,,0.01,weatherlink.com 1.10,2013-06-28 05:25:00,
2013-06-28 01:40:00,70.9,70.0,29.51,NNE,21,0.0,4.0,96,0.00,,,0.01,weatherlink.com 1.10,2013-06-28 05:40:00,
2013-06-28 01:55:00,71.0,70.0,29.51,NE,52,0.0,3.0,96,0.00,,,0.01,weatherlink.com 1.10,2013-06-28 05:55:00,
2013-06-28 02:10:00,71.0,70.0,29.51,WNW,293,0.0,3.0,96,0.00,,,0.01,weatherlink.com 1.10,2013-06-28 06:10:00,
2013-06-28 02:25:00,71.0,70.0,29.50,West,277,0.0,4.0,96,0.00,,,0.01,weatherlink.com 1.10,2013-06-28 06:25:00,
2013-06-28 02:40:00,71.0,70.0,29.50,WSW,242,4.0,5.0,96,0.00,,,0.01,weatherlink.com 1.10,2013-06-28 06:40:00,
2013-06-28 02:55:00,71.2,70.0,29.50,ENE,76,0.0,5.0,96,0.00,,,0.01,weatherlink.com 1.10,2013-06-28 06:55:00,
2013-06-28 03:10:00,71.3,70.0,29.50,West,264,0.0,5.0,96,0.00,,,0.01,weatherlink.com 1.10,2013-06-28 07:10:00,
2013-06-28 03:25:00,71.4,70.0,29.49,NW,313,1.0,5.0,96,0.00,,,0.01,weatherlink.com 1.10,2013-06-28 07:25:00,
2013-06-28 03:40:00,71.5,70.0,29.49,SSW,204,3.0,3.0,96,0.00,,,0.01,weatherlink.com 1.10,2013-06-28 07:40:00,
2013-06-28 03:55:00,71.6,70.0,29.49,WSW,250,0.0,2.0,96,0.00,,,0.01,weatherlink.com 1.10,2013-06-28 07:55:00,
2013-06-28 04:10:00,71.7,70.0,29.49,WSW,250,0.0,1.0,95,0.00,,,0.01,weatherlink.com 1.10,2013-06-28 08:10:00,
2013-06-28 04:25:00,71.6,70.0,29.48,West,265,0.0,2.0,95,0.00,,,0.01,weatherlink.com 1.10,2013-06-28 08:25:00,
2013-06-28 04:40:00,71.6,70.0,29.48,ENE,70,0.0,3.0,95,0.00,,,0.01,weatherlink.com 1.10,2013-06-28 08:40:00,
2013-06-28 04:55:00,71.7,70.0,29.48,West,269,0.0,4.0,95,0.00,,,0.01,weatherlink.com 1.10,2013-06-28 08:55:00,
2013-06-28 05:10:00,71.7,70.0,29.48,WSW,240,0.0,2.0,94,0.00,,,0.01,weatherlink.com 1.10,2013-06-28 09:10:00,
2013-06-28 05:25:00,71.7,70.0,29.49,WSW,239,0.0,1.0,94,0.00,,,0.01,weatherlink.com 1.10,2013-06-28 09:25:00,
2013-06-28 05:40:00,71.7,70.0,29.50,WSW,239,0.0,3.0,94,0.00,,,0.01,weatherlink.com 1.10,2013-06-28 09:40:00,
2013-06-28 05:55:00,71.7,70.0,29.49,North,5,0.0,4.0,94,0.00,,,0.01,weatherlink.com 1.10,2013-06-28 09:55:00,
2013-06-28 06:10:00,71.7,70.0,29.50,West,278,2.0,4.0,94,0.00,,,0.01,weatherlink.com 1.10,2013-06-28 10:10:00,
2013-06-28 06:25:00,71.7,70.0,29.50,West,275,0.0,2.0,94,0.00,,,0.01,weatherlink.com 1.10,2013-06-28 10:25:00,
2013-06-28 06:40:00,71.7,70.0,29.50,West,275,0.0,1.0,94,0.00,,,0.01,weatherlink.com 1.10,2013-06-28 10:40:00,
2013-06-28 06:55:00,72.0,70.0,29.51,North,350,0.0,2.0,94,0.00,,,0.01,weatherlink.com 1.10,2013-06-28 10:55:00,
2013-06-28 07:10:00,72.2,70.0,29.50,NW,312,0.0,4.0,94,0.00,,,0.01,weatherlink.com 1.10,2013-06-28 11:10:00,
2013-06-28 07:25:00,72.2,70.0,29.51,West,274,0.0,2.0,94,0.00,,,0.01,weatherlink.com 1.10,2013-06-28 11:25:00,
2013-06-28 07:40:00,72.3,71.0,29.51,West,274,0.0,1.0,94,0.00,,,0.01,weatherlink.com 1.10,2013-06-28 11:40:00,
2013-06-28 07:55:00,72.2,70.0,29.50,West,274,0.0,1.0,94,0.00,,,0.01,weatherlink.com 1.10,2013-06-28 11:55:00,
2013-06-28 08:10:00,72.7,71.0,29.50,North,5,0.0,3.0,93,0.00,,,0.01,weatherlink.com 1.10,2013-06-28 12:10:00,
2013-06-28 08:25:00,73.0,71.0,29.50,NNE,20,0.0,1.0,92,0.00,,,0.01,weatherlink.com 1.10,2013-06-28 12:25:00,
2013-06-28 08:40:00,71.6,70.0,29.50,West,277,0.0,5.0,93,0.06,,,0.07,weatherlink.com 1.10,2013-06-28 12:40:00,
2013-06-28 08:55:00,70.9,69.0,29.50,NW,304,0.0,5.0,94,0.09,,,0.10,weatherlink.com 1.10,2013-06-28 12:55:00,
2013-06-28 09:10:00,70.8,69.0,29.49,WNW,296,0.0,3.0,95,0.09,,,0.10,weatherlink.com 1.10,2013-06-28 13:10:00,
2013-06-28 09:25:00,71.4,70.0,29.48,WNW,290,0.0,5.0,96,0.09,,,0.10,weatherlink.com 1.10,2013-06-28 13:25:00,
2013-06-28 09:40:00,71.9,71.0,29.48,WNW,284,0.0,3.0,96,0.02,,,0.10,weatherlink.com 1.10,2013-06-28 13:40:00,
2013-06-28 09:55:00,72.8,71.0,29.48,WSW,240,0.0,2.0,95,0.00,,,0.10,weatherlink.com 1.10,2013-06-28 13:55:00,
2013-06-28 10:10:00,73.1,71.0,29.48,West,276,0.0,3.0,94,0.00,,,0.10,weatherlink.com 1.10,2013-06-28 14:10:00,
2013-06-28 10:25:00,73.5,71.0,29.49,WNW,290,0.0,1.0,93,0.00,,,0.10,weatherlink.com 1.10,2013-06-28 14:25:00,
2013-06-28 10:40:00,74.0,71.0,29.48,West,281,0.0,4.0,91,0.00,,,0.10,weatherlink.com 1.10,2013-06-28 14:40:00,
2013-06-28 10:56:00,74.6,71.0,29.48,WNW,298,0.0,4.0,87,0.00,,,0.10,weatherlink.com 1.10,2013-06-28 14:56:00,
2013-06-28 11:11:00,76.0,72.0,29.48,WNW,292,0.0,1.0,86,0.00,,,0.10,weatherlink.com 1.10,2013-06-28 15:11:00,
2013-06-28 11:26:00,77.1,72.0,29.48,West,261,0.0,3.0,83,0.00,,,0.10,weatherlink.com 1.10,2013-06-28 15:26:00,
2013-06-28 11:41:00,78.3,72.0,29.48,SW,229,0.0,6.0,80,0.00,,,0.10,weatherlink.com 1.10,2013-06-28 15:41:00,
2013-06-28 11:56:00,79.7,71.0,29.49,NW,323,0.0,4.0,75,0.00,,,0.10,weatherlink.com 1.10,2013-06-28 15:56:00,
2013-06-28 12:11:00,80.9,72.0,29.50,West,259,0.0,5.0,74,0.00,,,0.10,weatherlink.com 1.10,2013-06-28 16:11:00,
2013-06-28 12:26:00,80.9,71.0,29.50,West,262,0.0,4.0,72,0.00,,,0.10,weatherlink.com 1.10,2013-06-28 16:26:00,
2013-06-28 12:41:00,80.4,72.0,29.50,West,261,0.0,1.0,76,0.00,,,0.10,weatherlink.com 1.10,2013-06-28 16:41:00,
2013-06-28 12:56:00,80.3,71.0,29.48,West,271,0.0,4.0,74,0.00,,,0.10,weatherlink.com 1.10,2013-06-28 16:56:00,
2013-06-28 13:11:00,80.8,71.0,29.48,WNW,290,0.0,5.0,73,0.00,,,0.10,weatherlink.com 1.10,2013-06-28 17:11:00,
2013-06-28 13:26:00,81.9,71.0,29.48,SSE,167,2.0,5.0,70,0.00,,,0.10,weatherlink.com 1.10,2013-06-28 17:26:00,
2013-06-28 13:41:00,83.0,71.0,29.48,SW,220,0.0,4.0,68,0.00,,,0.10,weatherlink.com 1.10,2013-06-28 17:41:00,
2013-06-28 13:56:00,83.7,72.0,29.47,SSW,196,0.0,5.0,67,0.00,,,0.10,weatherlink.com 1.10,2013-06-28 17:56:00,
2013-06-28 14:11:00,84.5,72.0,29.47,SE,145,2.0,6.0,67,0.00,,,0.10,weatherlink.com 1.10,2013-06-28 18:11:00,
2013-06-28 14:26:00,83.9,71.0,29.47,West,281,0.0,3.0,66,0.00,,,0.10,weatherlink.com 1.10,2013-06-28 18:26:00,
2013-06-28 14:41:00,83.2,71.0,29.47,WNW,288,0.0,6.0,66,0.00,,,0.10,weatherlink.com 1.10,2013-06-28 18:41:00,
2013-06-28 14:56:00,83.6,72.0,29.47,WNW,293,2.0,7.0,67,0.00,,,0.10,weatherlink.com 1.10,2013-06-28 18:56:00,
2013-06-28 15:11:00,85.1,71.0,29.46,WSW,239,0.0,7.0,62,0.00,,,0.10,weatherlink.com 1.10,2013-06-28 19:11:00,
2013-06-28 15:26:00,84.8,71.0,29.46,NNE,20,0.0,3.0,63,0.00,,,0.10,weatherlink.com 1.10,2013-06-28 19:26:00,
2013-06-28 15:41:00,84.5,70.0,29.46,West,274,4.0,5.0,61,0.00,,,0.10,weatherlink.com 1.10,2013-06-28 19:41:00,
2013-06-28 15:56:00,84.5,71.0,29.45,ESE,115,0.0,3.0,64,0.00,,,0.10,weatherlink.com 1.10,2013-06-28 19:56:00,
2013-06-28 16:11:00,85.0,69.0,29.44,SW,229,3.0,5.0,59,0.00,,,0.10,weatherlink.com 1.10,2013-06-28 20:11:00,
2013-06-28 16:26:00,85.4,69.0,29.44,South,189,0.0,5.0,59,0.00,,,0.10,weatherlink.com 1.10,2013-06-28 20:26:00,
2013-06-28 16:41:00,86.5,70.0,29.44,WNW,283,0.0,4.0,59,0.00,,,0.10,weatherlink.com 1.10,2013-06-28 20:41:00,
2013-06-28 16:56:00,86.5,70.0,29.45,West,266,0.0,4.0,59,0.00,,,0.10,weatherlink.com 1.10,2013-06-28 20:56:00,
2013-06-28 17:11:00,86.9,70.0,29.45,WNW,287,0.0,1.0,58,0.00,,,0.10,weatherlink.com 1.10,2013-06-28 21:11:00,
2013-06-28 17:26:00,87.2,71.0,29.45,West,273,2.0,7.0,58,0.00,,,0.10,weatherlink.com 1.10,2013-06-28 21:26:00,
2013-06-28 17:41:00,86.0,70.0,29.44,West,275,2.0,3.0,59,0.00,,,0.10,weatherlink.com 1.10,2013-06-28 21:41:00,
2013-06-28 17:56:00,84.8,70.0,29.44,WNW,282,0.0,2.0,61,0.00,,,0.10,weatherlink.com 1.10,2013-06-28 21:56:00,
2013-06-28 18:11:00,83.4,70.0,29.45,West,278,0.0,1.0,64,0.00,,,0.10,weatherlink.com 1.10,2013-06-28 22:11:00,
2013-06-28 18:26:00,82.8,71.0,29.46,West,278,0.0,2.0,68,0.00,,,0.10,weatherlink.com 1.10,2013-06-28 22:26:00,
2013-06-28 18:41:00,83.1,70.0,29.46,NNE,15,0.0,4.0,64,0.00,,,0.10,weatherlink.com 1.10,2013-06-28 22:41:00,
2013-06-28 18:56:00,82.6,70.0,29.45,West,277,1.0,7.0,66,0.00,,,0.10,weatherlink.com 1.10,2013-06-28 22:56:00,
2013-06-28 19:11:00,81.9,71.0,29.46,North,11,0.0,1.0,69,0.00,,,0.10,weatherlink.com 1.10,2013-06-28 23:11:00,
2013-06-28 19:26:00,81.3,71.0,29.45,North,9,0.0,1.0,70,0.00,,,0.10,weatherlink.com 1.10,2013-06-28 23:26:00,
2013-06-28 19:42:00,80.7,70.0,29.45,NNW,341,0.0,1.0,70,0.00,,,0.10,weatherlink.com 1.10,2013-06-28 23:42:00,
2013-06-28 19:57:00,80.5,70.0,29.45,North,11,0.0,3.0,70,0.00,,,0.10,weatherlink.com 1.10,2013-06-28 23:57:00,
2013-06-28 20:12:00,80.0,70.0,29.46,WNW,288,0.0,4.0,72,0.00,,,0.10,weatherlink.com 1.10,2013-06-29 00:12:00,
2013-06-28 20:27:00,79.4,70.0,29.47,WNW,288,0.0,2.0,74,0.00,,,0.10,weatherlink.com 1.10,2013-06-29 00:27:00,
2013-06-28 20:42:00,78.9,70.0,29.47,WNW,288,0.0,1.0,74,0.00,,,0.10,weatherlink.com 1.10,2013-06-29 00:42:00,
2013-06-28 20:57:00,78.8,70.0,29.47,WNW,300,0.0,1.0,74,0.00,,,0.10,weatherlink.com 1.10,2013-06-29 00:57:00,
2013-06-28 21:12:00,79.0,70.0,29.47,WNW,288,0.0,1.0,73,0.00,,,0.10,weatherlink.com 1.10,2013-06-29 01:12:00,
2013-06-28 21:27:00,78.9,70.0,29.48,WNW,283,0.0,2.0,73,0.00,,,0.10,weatherlink.com 1.10,2013-06-29 01:27:00,
2013-06-28 21:42:00,78.5,69.0,29.48,WNW,291,2.0,2.0,72,0.00,,,0.10,weatherlink.com 1.10,2013-06-29 01:42:00,
2013-06-28 21:57:00,78.0,68.0,29.48,WSW,245,0.0,7.0,71,0.00,,,0.10,weatherlink.com 1.10,2013-06-29 01:57:00,
2013-06-28 22:12:00,77.6,68.0,29.49,NW,315,0.0,5.0,71,0.00,,,0.10,weatherlink.com 1.10,2013-06-29 02:12:00,
2013-06-28 22:27:00,77.0,67.0,29.48,West,277,3.0,4.0,72,0.00,,,0.10,weatherlink.com 1.10,2013-06-29 02:27:00,
2013-06-28 22:42:00,76.4,68.0,29.49,WNW,297,0.0,4.0,74,0.00,,,0.10,weatherlink.com 1.10,2013-06-29 02:42:00,
2013-06-28 22:57:00,75.7,68.0,29.49,WNW,297,0.0,1.0,77,0.00,,,0.10,weatherlink.com 1.10,2013-06-29 02:57:00,
2013-06-28 23:12:00,74.8,68.0,29.48,WNW,297,0.0,0.0,79,0.00,,,0.10,weatherlink.com 1.10,2013-06-29 03:12:00,
2013-06-28 23:27:00,73.9,68.0,29.47,WNW,297,0.0,0.0,82,0.00,,,0.10,weatherlink.com 1.10,2013-06-29 03:27:00,
2013-06-28 23:42:00,73.2,68.0,29.47,WNW,297,0.0,0.0,84,0.00,,,0.10,weatherlink.com 1.10,2013-06-29 03:42:00,
2013-06-28 23:57:00,72.5,68.0,29.47,WNW,297,0.0,0.0,85,0.00,,,0.10,weatherlink.com 1.10,2013-06-29 03:57:00,